Stanton, Minnesota
Current Conditions -  °F | °C
As of 12:14 PM on Friday 28 Nov 2014 (Local Time) from KSYN Reporting Station
Scattered Clouds Scattered Clouds  
Wind Chill: 13°   Ceiling: Unl
Heat Index: 23°   Visibility: 10mi
Dew Point: 15°   Wind: 9mph
Humidity: 71%   Direction: 160°SSE
Pressure: 29.9"   Gusts: NA
Location:  44.3996°N, 92.9847°W
Report Text: KSYN 281814Z AUTO 16008KT 10SM SCT110 M05/M09 A2990 RMK AO2 T10491095
Loading
Personal Weather Stations






























Interactive Weather Map New forecast layout! Learn more

10-Day Weather Forecast

Advertisements
Track Severe Weather on mobile